Excellent Pescadores — HORK — position and weather

sailwx.info

Track history (hours):
 
Tides and Currents Weather Stations Pressure Air Temp Water Temp Dewpoint Dewpoint Depression Visibility Wind Speed Wind Dir Waves Ship Positions

Excellent Pescadores

Last reported at 2015-May-09 18:04 UTC. Time now 2015-May-23 05:45 UTC.
Position N 01°15' E 104°03'.
Warning: this ship's position is 13 days out of date.

Length 148 m; draft 5.4 m.

Type: Cargo ship. MMSI: 356291000.

Date/timePositionNaut miles runAvg speedWind from/ knotsBaromVisibWave heightAir tempDewpointWater temp
2015-May-09 18:04N 01°15' E 104°03'510.1
2015-May-09 17:32N 01°14' E 103°57'5 3.4
2015-May-09 16:08N 01°15' E 103°53'0 0.0
2015-May-09 12:26N 01°15' E 103°53'0 0.0
2015-May-09 10:32N 01°15' E 103°53'0 0.0
2015-May-09 09:08N 01°15' E 103°53'0 0.0
2015-May-09 07:07N 01°15' E 103°53'  
2015-May-05 01:14N 01°15' E 103°54'1 1.3
2015-May-05 00:12N 01°16' E 103°54'2 0.3
2015-May-04 17:29N 01°14' E 103°53'1 0.1
2015-May-04 08:20N 01°14' E 103°54'4 5.2
2015-May-04 07:33N 01°15' E 103°58'8 6.4
2015-May-04 06:19N 01°16' E 104°05'  
Track history (hours):
 
Tides and Currents Weather Stations Pressure Air Temp Water Temp Dewpoint Dewpoint Depression Visibility Wind Speed Wind Dir Waves Ship Positions

Excellent Pescadores

Last reported at 2015-May-09 18:04 UTC. Time now 2015-May-23 05:45 UTC.
Position N 01°15' E 104°03'.
Warning: this ship's position is 13 days out of date.

Length 148 m; draft 5.4 m.

Type: Cargo ship. MMSI: 356291000.

Date/timePositionNaut miles runAvg speedWind from/ knotsBaromVisibWave heightAir tempDewpointWater temp
2015-May-09 18:04N 01°15' E 104°03'510.1
2015-May-09 17:32N 01°14' E 103°57'5 3.4
2015-May-09 16:08N 01°15' E 103°53'0 0.0
2015-May-09 12:26N 01°15' E 103°53'0 0.0
2015-May-09 10:32N 01°15' E 103°53'0 0.0
2015-May-09 09:08N 01°15' E 103°53'0 0.0
2015-May-09 07:07N 01°15' E 103°53'  
2015-May-05 01:14N 01°15' E 103°54'1 1.3
2015-May-05 00:12N 01°16' E 103°54'2 0.3
2015-May-04 17:29N 01°14' E 103°53'1 0.1
2015-May-04 08:20N 01°14' E 103°54'4 5.2
2015-May-04 07:33N 01°15' E 103°58'8 6.4
2015-May-04 06:19N 01°16' E 104°05'  

Dump ship's entire track history